Time;durP1;ratioP1;P1;durP2;ratioP2;P2;SDS_P1;SDS_P2;PMS_P1;PMS_P2;Temp;Humidity;BMP_temperature;BMP_pressure;BME280_temperature;BME280_humidity;BME280_pressure;Samples;Min_cycle;Max_cycle;Signal;HPM_P1;HPM_P2
2023/05/06 00:00:28;;;;;;;24.00;11.70;;;;;;;11.49;100.00;100922.13;6068011;28;20116;-70
2023/05/06 00:03:23;;;;;;;26.57;13.00;;;;;;;11.53;100.00;100944.75;6049739;28;20034;-70
2023/05/06 00:06:19;;;;;;;27.83;13.48;;;;;;;11.79;100.00;100953.75;6053783;28;20265;-70
2023/05/06 00:09:14;;;;;;;24.15;12.30;;;;;;;11.68;100.00;100947.78;6053094;28;20030;-69
2023/05/06 00:12:10;;;;;;;29.77;12.57;;;;;;;11.50;100.00;100953.00;6053697;28;20026;-70
2023/05/06 00:15:06;;;;;;;66.80;14.47;;;;;;;11.40;100.00;100949.56;6052761;28;20037;-70
2023/05/06 00:18:01;;;;;;;65.07;14.38;;;;;;;11.24;100.00;100930.75;6053647;28;20100;-71
2023/05/06 00:20:57;;;;;;;76.82;15.07;;;;;;;11.43;100.00;100941.31;6053413;28;20084;-70
2023/05/06 00:23:52;;;;;;;145.80;15.70;;;;;;;11.22;100.00;100930.06;6052243;28;20369;-69
2023/05/06 00:26:47;;;;;;;69.00;13.10;;;;;;;11.31;100.00;100931.84;6053166;28;20475;-70
2023/05/06 00:29:43;;;;;;;114.17;15.70;;;;;;;11.46;100.00;100943.66;6052787;28;20289;-70
2023/05/06 00:32:38;;;;;;;123.00;15.30;;;;;;;11.35;100.00;100936.72;6053347;28;20053;-70
2023/05/06 00:35:33;;;;;;;112.57;14.80;;;;;;;11.40;100.00;100935.44;6052408;28;20041;-69
2023/05/06 00:38:28;;;;;;;33.00;11.83;;;;;;;11.52;100.00;100932.47;6052699;28;20022;-69
2023/05/06 00:41:24;;;;;;;51.47;11.73;;;;;;;11.50;100.00;100930.91;6057619;28;20049;-69
2023/05/06 00:44:19;;;;;;;65.80;11.95;;;;;;;11.62;100.00;100927.94;6059017;28;20026;-71
2023/05/06 00:47:16;;;;;;;52.20;10.43;;;;;;;11.70;100.00;100943.16;6052968;28;20030;-71
2023/05/06 00:50:11;;;;;;;34.95;9.23;;;;;;;11.49;100.00;100932.75;6052818;28;20117;-71
2023/05/06 00:53:08;;;;;;;53.20;10.37;;;;;;;11.55;100.00;100934.00;6052602;28;20037;-70
2023/05/06 00:56:03;;;;;;;24.10;8.13;;;;;;;11.59;100.00;100935.34;6052179;28;20025;-68
2023/05/06 00:58:58;;;;;;;28.03;10.37;;;;;;;11.72;100.00;100925.25;6052460;28;20029;-70
2023/05/06 01:01:54;;;;;;;81.00;9.50;;;;;;;11.63;100.00;100942.88;6052058;28;20271;-69
2023/05/06 01:04:50;;;;;;;63.13;9.00;;;;;;;11.56;100.00;100943.63;6051602;28;20279;-70
2023/05/06 01:07:51;;;;;;;70.85;9.35;;;;;;;11.39;100.00;100947.06;6052432;28;20675;-69
2023/05/06 01:11:01;;;;;;;57.17;8.18;;;;;;;11.27;100.00;100936.63;6034669;28;20034;-69
2023/05/06 01:14:23;;;;;;;31.70;7.15;;;;;;;11.31;100.00;100959.22;6034022;28;20557;-69
2023/05/06 01:17:19;;;;;;;38.95;8.40;;;;;;;11.32;100.00;100939.66;6051734;28;20041;-69
2023/05/06 01:20:16;;;;;;;28.02;9.00;;;;;;;11.40;100.00;100954.88;6051832;28;20022;-68
2023/05/06 01:23:13;;;;;;;27.02;10.02;;;;;;;11.35;100.00;100949.16;6052102;28;20069;-71
2023/05/06 01:26:08;;;;;;;23.20;9.77;;;;;;;11.57;100.00;100955.94;6051095;28;20034;-70
2023/05/06 01:29:03;;;;;;;25.92;10.98;;;;;;;11.46;100.00;100959.59;6051596;28;20033;-68
2023/05/06 01:32:10;;;;;;;20.97;10.90;;;;;;;11.44;100.00;100958.91;6051927;28;20052;-70
2023/05/06 01:35:20;;;;;;;23.75;11.85;;;;;;;11.36;100.00;100940.19;6074922;28;20275;-70
2023/05/06 01:38:57;;;;;;;22.77;11.73;;;;;;;11.36;100.00;100959.63;6037915;28;20062;-68
2023/05/06 01:41:56;;;;;;;26.77;12.52;;;;;;;11.32;100.00;100954.75;6054838;28;20037;-68
2023/05/06 01:44:54;;;;;;;30.48;14.18;;;;;;;11.39;100.00;100953.19;6053570;28;20068;-69
2023/05/06 01:47:49;;;;;;;26.00;13.13;;;;;;;11.35;100.00;100954.47;6074306;28;20030;-69
2023/05/06 01:50:45;;;;;;;25.65;12.45;;;;;;;11.41;100.00;100959.22;6073829;28;20071;-69
2023/05/06 01:53:40;;;;;;;27.20;13.20;;;;;;;11.43;100.00;100957.25;6074110;28;20538;-70
2023/05/06 01:56:35;;;;;;;30.47;14.63;;;;;;;11.53;100.00;100978.44;6051485;28;20420;-71
2023/05/06 01:59:30;;;;;;;30.70;14.60;;;;;;;11.48;100.00;100954.13;6050065;28;20286;-68
2023/05/06 02:02:26;;;;;;;29.60;13.67;;;;;;;11.58;100.00;100971.69;6050971;28;20032;-69
2023/05/06 02:05:21;;;;;;;26.97;12.23;;;;;;;11.48;100.00;100960.28;6050246;28;20034;-67
2023/05/06 02:08:16;;;;;;;26.23;12.80;;;;;;;11.61;100.00;100975.88;6050509;28;20284;-69
2023/05/06 02:11:12;;;;;;;26.93;13.70;;;;;;;11.56;100.00;100968.38;6050926;28;20377;-71
2023/05/06 02:14:07;;;;;;;31.27;14.68;;;;;;;11.61;100.00;100970.56;6049914;28;20120;-69
2023/05/06 02:17:05;;;;;;;27.30;13.27;;;;;;;11.54;100.00;100961.53;6050879;28;20034;-70
2023/05/06 02:20:01;;;;;;;26.88;13.18;;;;;;;11.49;100.00;100953.16;6050585;28;20021;-69
2023/05/06 02:22:56;;;;;;;27.60;13.03;;;;;;;11.58;100.00;100965.53;6050619;28;20378;-72
2023/05/06 02:25:52;;;;;;;28.90;13.13;;;;;;;11.58;100.00;100971.69;6049567;28;20125;-70
2023/05/06 02:28:47;;;;;;;35.65;14.18;;;;;;;11.58;100.00;100966.38;6049176;28;20034;-69
2023/05/06 02:31:42;;;;;;;28.10;13.07;;;;;;;11.61;100.00;100966.09;6050684;28;20029;-69
2023/05/06 02:34:37;;;;;;;27.60;12.33;;;;;;;11.50;100.00;100952.16;6049591;28;20032;-70
2023/05/06 02:37:33;;;;;;;28.70;14.03;;;;;;;11.52;100.00;100958.19;6050592;28;20378;-71
2023/05/06 02:40:28;;;;;;;26.50;12.83;;;;;;;11.47;100.00;100955.94;6050515;28;20022;-69
2023/05/06 02:43:24;;;;;;;28.95;12.55;;;;;;;11.56;100.00;100971.03;6062165;28;20026;-69
2023/05/06 02:46:20;;;;;;;28.92;13.80;;;;;;;11.43;100.00;100954.59;6050318;28;20030;-69
2023/05/06 02:49:15;;;;;;;27.85;13.02;;;;;;;11.52;100.00;100972.31;6049913;28;20037;-69
2023/05/06 02:52:10;;;;;;;28.73;12.60;;;;;;;11.45;100.00;100973.84;6050272;28;20065;-69
2023/05/06 02:55:06;;;;;;;24.07;11.60;;;;;;;11.35;100.00;100965.09;6049304;28;20029;-70
2023/05/06 02:58:01;;;;;;;20.70;11.23;;;;;;;11.24;100.00;100954.66;6049437;28;20037;-69
2023/05/06 03:00:56;;;;;;;21.87;10.77;;;;;;;11.21;100.00;100960.25;6049296;28;20485;-69
2023/05/06 03:03:52;;;;;;;22.10;9.93;;;;;;;11.15;100.00;100950.19;6048986;28;20457;-69
2023/05/06 03:06:47;;;;;;;20.30;10.47;;;;;;;11.13;100.00;100957.47;6049618;28;20109;-68
2023/05/06 03:09:42;;;;;;;23.38;10.52;;;;;;;11.16;100.00;100955.38;6049301;28;20033;-71
2023/05/06 03:12:38;;;;;;;25.33;11.20;;;;;;;11.18;100.00;100960.53;6049521;28;20047;-68
2023/05/06 03:15:33;;;;;;;23.47;10.50;;;;;;;11.30;100.00;100977.97;6049069;28;20030;-69
2023/05/06 03:18:29;;;;;;;22.00;10.82;;;;;;;11.26;100.00;100965.94;6049461;28;20050;-69
2023/05/06 03:21:24;;;;;;;25.13;10.87;;;;;;;11.26;100.00;100968.59;6049322;28;20048;-70
2023/05/06 03:24:20;;;;;;;21.13;9.57;;;;;;;11.24;100.00;100975.88;6048967;28;20373;-71
2023/05/06 03:27:15;;;;;;;26.50;10.73;;;;;;;11.28;100.00;100958.66;6049413;28;20485;-72
2023/05/06 03:30:11;;;;;;;22.27;10.03;;;;;;;11.35;100.00;100967.75;6048715;28;20041;-70
2023/05/06 03:33:06;;;;;;;25.08;11.80;;;;;;;11.39;100.00;100982.38;6050158;28;20034;-71
2023/05/06 03:36:01;;;;;;;23.53;10.73;;;;;;;11.39;100.00;100968.31;6048808;28;20612;-72
2023/05/06 03:38:57;;;;;;;22.53;10.80;;;;;;;11.29;100.00;100952.38;6051388;28;20037;-72
2023/05/06 03:41:52;;;;;;;22.53;10.80;;;;;;;11.27;100.00;100962.31;6062402;28;20041;-72
2023/05/06 03:44:47;;;;;;;21.23;9.67;;;;;;;11.24;100.00;100944.03;6057502;28;20033;-71
2023/05/06 03:47:42;;;;;;;21.27;11.33;;;;;;;11.25;100.00;100940.41;6054113;28;20026;-71
2023/05/06 03:50:38;;;;;;;21.53;10.87;;;;;;;11.22;100.00;100949.47;6054023;28;20084;-71
2023/05/06 03:53:33;;;;;;;21.50;9.80;;;;;;;11.06;100.00;100948.41;6065587;28;20357;-72
2023/05/06 03:56:28;;;;;;;19.47;8.93;;;;;;;10.98;100.00;100948.28;6054017;28;20479;-72
2023/05/06 03:59:24;;;;;;;21.55;9.23;;;;;;;10.86;100.00;100952.91;6064894;28;20261;-69
2023/05/06 04:02:19;;;;;;;22.57;9.80;;;;;;;10.82;100.00;100964.78;6067004;28;20121;-70
2023/05/06 04:05:15;;;;;;;20.07;10.20;;;;;;;10.69;100.00;100954.47;6053005;28;20041;-70
2023/05/06 04:08:10;;;;;;;22.33;10.20;;;;;;;10.57;100.00;100958.22;6053315;28;20381;-71
2023/05/06 04:11:06;;;;;;;21.23;10.40;;;;;;;10.41;100.00;100939.38;6053438;28;20030;-69
2023/05/06 04:14:01;;;;;;;21.67;8.98;;;;;;;10.43;100.00;100960.47;6053103;28;20615;-72
2023/05/06 04:16:57;;;;;;;22.77;10.00;;;;;;;10.42;100.00;100974.69;6053188;28;20038;-72
2023/05/06 04:19:56;;;;;;;26.23;9.87;;;;;;;10.27;100.00;100953.09;6053222;28;20117;-71
2023/05/06 04:22:51;;;;;;;22.88;10.75;;;;;;;10.30;100.00;100967.88;6052834;28;20084;-70
2023/05/06 04:25:49;;;;;;;19.77;8.90;;;;;;;10.32;100.00;100971.22;6052645;28;20521;-71
2023/05/06 04:28:44;;;;;;;21.42;9.60;;;;;;;10.40;100.00;100998.72;6053309;28;20022;-70
2023/05/06 04:31:40;;;;;;;20.80;9.73;;;;;;;10.35;100.00;100989.50;6053150;28;20029;-69
2023/05/06 04:34:36;;;;;;;19.13;9.25;;;;;;;10.26;100.00;100980.56;6052668;28;20469;-70
2023/05/06 04:37:31;;;;;;;19.93;9.00;;;;;;;10.22;100.00;100979.13;6053100;28;20030;-70
2023/05/06 04:40:27;;;;;;;21.53;9.33;;;;;;;10.29;100.00;100996.19;6053355;28;20080;-71
2023/05/06 04:43:22;;;;;;;20.75;9.68;;;;;;;10.29;100.00;100984.72;6065124;28;20030;-72
2023/05/06 04:46:17;;;;;;;18.90;8.57;;;;;;;10.42;100.00;101002.06;6052825;28;20358;-71
2023/05/06 04:49:13;;;;;;;17.60;9.03;;;;;;;10.47;100.00;100997.16;6052297;28;20022;-71
2023/05/06 04:52:08;;;;;;;17.07;8.83;;;;;;;10.59;100.00;101009.34;6052132;28;20117;-72
2023/05/06 04:55:04;;;;;;;19.57;8.60;;;;;;;10.60;100.00;101005.69;6052471;28;20042;-71
2023/05/06 04:57:59;;;;;;;17.02;8.70;;;;;;;10.57;100.00;101003.31;6052830;28;20101;-69
2023/05/06 05:00:55;;;;;;;19.57;8.77;;;;;;;10.48;100.00;100993.56;6052613;28;20029;-70
2023/05/06 05:03:51;;;;;;;19.05;8.75;;;;;;;10.56;100.00;100999.00;6051743;28;20269;-71
2023/05/06 05:06:46;;;;;;;22.47;9.07;;;;;;;10.54;100.00;101000.97;6052061;28;20377;-71
2023/05/06 05:09:41;;;;;;;17.30;7.70;;;;;;;10.75;100.00;101014.91;6052579;28;20030;-70
2023/05/06 05:12:37;;;;;;;15.77;8.23;;;;;;;10.66;100.00;101021.06;6052375;28;20041;-70
2023/05/06 05:15:32;;;;;;;19.73;8.60;;;;;;;10.60;100.00;101016.28;6051233;28;20462;-69
2023/05/06 05:18:28;;;;;;;18.23;8.43;;;;;;;10.66;100.00;101023.69;6052325;28;20033;-69
2023/05/06 05:21:23;;;;;;;19.52;7.68;;;;;;;10.58;100.00;101012.94;6051882;28;20038;-70
2023/05/06 05:24:18;;;;;;;17.53;8.37;;;;;;;10.67;100.00;101020.09;6050815;28;20174;-70
2023/05/06 05:27:13;;;;;;;18.87;7.87;;;;;;;10.61;100.00;101007.38;6075576;28;20026;-69
2023/05/06 05:30:09;;;;;;;16.27;7.15;;;;;;;10.70;100.00;101033.06;6075500;28;20030;-72
2023/05/06 05:33:04;;;;;;;14.52;7.10;;;;;;;10.68;100.00;101018.28;6056685;28;20508;-71
2023/05/06 05:36:00;;;;;;;15.50;7.00;;;;;;;10.77;100.00;101033.34;6051545;28;20034;-73
2023/05/06 05:38:56;;;;;;;16.37;8.07;;;;;;;10.77;100.00;101034.19;6051341;28;20030;-69
2023/05/06 05:41:51;;;;;;;19.05;8.05;;;;;;;10.80;100.00;101021.59;6051492;28;20065;-70
2023/05/06 05:44:46;;;;;;;19.93;8.37;;;;;;;10.84;100.00;101036.28;6050158;28;20030;-68
2023/05/06 05:47:41;;;;;;;16.47;7.40;;;;;;;10.87;100.00;101028.03;6050953;28;20085;-68
2023/05/06 05:50:37;;;;;;;17.70;7.93;;;;;;;10.92;100.00;101021.34;6049916;28;20030;-72
2023/05/06 05:53:32;;;;;;;21.10;7.67;;;;;;;11.03;100.00;101023.00;6050443;28;20032;-70
2023/05/06 05:56:27;;;;;;;15.47;7.70;;;;;;;11.21;100.00;101037.22;6051267;28;20033;-69
2023/05/06 05:59:22;;;;;;;22.33;9.67;;;;;;;11.40;100.00;101049.63;6050659;28;20113;-69
2023/05/06 06:02:18;;;;;;;16.37;7.50;;;;;;;11.44;100.00;101054.50;6050082;28;20421;-70
2023/05/06 06:05:13;;;;;;;18.13;8.30;;;;;;;11.44;100.00;101049.19;6050034;28;20045;-71
2023/05/06 06:08:08;;;;;;;16.50;8.00;;;;;;;11.72;100.00;101058.94;6052304;28;20657;-71
2023/05/06 06:11:05;;;;;;;15.30;7.30;;;;;;;11.70;100.00;101068.88;6050411;28;20069;-70
2023/05/06 06:14:00;;;;;;;14.73;7.25;;;;;;;11.75;100.00;101063.97;6051894;28;20029;-71
2023/05/06 06:16:55;;;;;;;16.57;8.10;;;;;;;11.80;100.00;101059.03;6050753;28;20040;-70
2023/05/06 06:19:55;;;;;;;15.13;7.07;;;;;;;11.84;100.00;101056.94;6050754;28;20030;-72
2023/05/06 06:22:51;;;;;;;15.13;7.45;;;;;;;11.79;100.00;101065.34;6050357;28;20045;-69
2023/05/06 06:25:46;;;;;;;18.23;8.67;;;;;;;12.02;100.00;101070.28;6050875;28;20037;-70
2023/05/06 06:28:43;;;;;;;17.40;8.47;;;;;;;11.85;100.00;101070.06;6056228;28;20141;-70
2023/05/06 06:31:38;;;;;;;15.27;7.57;;;;;;;11.89;100.00;101076.78;6049868;28;20299;-72
2023/05/06 06:34:33;;;;;;;20.50;8.87;;;;;;;11.96;100.00;101060.25;6050164;28;20489;-72
2023/05/06 06:37:29;;;;;;;17.57;8.73;;;;;;;11.77;100.00;101055.81;6051770;28;20036;-72
2023/05/06 06:40:24;;;;;;;22.03;9.37;;;;;;;11.86;100.00;101090.34;6054649;28;20034;-70
2023/05/06 06:43:20;;;;;;;19.77;9.23;;;;;;;11.72;100.00;101074.88;6060976;28;20285;-71
2023/05/06 06:46:15;;;;;;;19.73;10.13;;;;;;;11.87;100.00;101080.56;6044754;28;20030;-73
2023/05/06 06:49:11;;;;;;;17.20;8.50;;;;;;;11.79;100.00;101091.09;6046281;28;20389;-72
2023/05/06 06:52:06;;;;;;;18.83;9.60;;;;;;;11.82;100.00;101091.63;6046805;28;20661;-72
2023/05/06 06:55:01;;;;;;;19.23;9.37;;;;;;;11.86;100.00;101102.81;6045099;28;20281;-72
2023/05/06 06:57:57;;;;;;;18.92;9.45;;;;;;;11.87;100.00;101107.16;6046550;28;20414;-70
2023/05/06 07:00:52;;;;;;;20.03;9.17;;;;;;;11.76;100.00;101091.38;6046434;28;20097;-72
2023/05/06 07:03:47;;;;;;;20.67;9.60;;;;;;;11.83;100.00;101090.66;6043393;28;20040;-69
2023/05/06 07:06:43;;;;;;;20.73;9.03;;;;;;;12.06;100.00;101092.94;6045649;28;20041;-70
2023/05/06 07:09:41;;;;;;;18.60;9.37;;;;;;;12.11;100.00;101093.34;6059196;28;20499;-73
2023/05/06 07:12:36;;;;;;;17.00;9.00;;;;;;;12.12;100.00;101087.06;6045839;28;20053;-73
2023/05/06 07:15:31;;;;;;;18.00;9.00;;;;;;;12.20;100.00;101090.63;6044723;28;20382;-71
2023/05/06 07:18:27;;;;;;;17.43;8.47;;;;;;;12.74;100.00;101097.75;6045412;28;20026;-72
2023/05/06 07:21:22;;;;;;;15.20;8.00;;;;;;;13.18;100.00;101093.34;6057372;28;20103;-71
2023/05/06 07:24:17;;;;;;;13.87;7.73;;;;;;;13.15;100.00;101092.84;6044622;28;20053;-72
2023/05/06 07:27:13;;;;;;;20.75;8.95;;;;;;;13.36;100.00;101112.00;6045744;28;20452;-72
2023/05/06 07:30:08;;;;;;;17.03;7.30;;;;;;;13.36;100.00;101101.34;6046189;28;20424;-72
2023/05/06 07:33:04;;;;;;;14.73;7.90;;;;;;;13.15;100.00;101114.16;6061425;28;20044;-72
2023/05/06 07:35:59;;;;;;;13.77;7.23;;;;;;;13.11;100.00;101110.94;6050772;28;20429;-72
2023/05/06 07:38:54;;;;;;;14.13;7.43;;;;;;;13.15;100.00;101108.81;6045466;28;20280;-71
2023/05/06 07:41:50;;;;;;;17.50;8.73;;;;;;;13.50;100.00;101114.13;6054114;28;20036;-71
2023/05/06 07:44:45;;;;;;;14.25;7.53;;;;;;;13.79;100.00;101125.31;6053280;28;20474;-71
2023/05/06 07:47:41;;;;;;;15.77;7.93;;;;;;;13.96;100.00;101132.44;6047488;28;20033;-71
2023/05/06 07:50:36;;;;;;;15.67;7.90;;;;;;;13.98;100.00;101133.09;6059106;28;20032;-71
2023/05/06 07:53:31;;;;;;;14.07;7.33;;;;;;;13.98;100.00;101126.94;6044387;28;20034;-71
2023/05/06 07:56:27;;;;;;;15.48;7.60;;;;;;;13.65;100.00;101124.06;6045367;28;20265;-71
2023/05/06 07:59:22;;;;;;;15.43;8.10;;;;;;;13.72;100.00;101140.28;6045626;28;20037;-71
2023/05/06 08:02:17;;;;;;;13.73;6.77;;;;;;;13.54;100.00;101134.13;6043483;28;20030;-70
2023/05/06 08:05:13;;;;;;;14.97;7.47;;;;;;;13.71;100.00;101141.25;6045141;28;20457;-71
2023/05/06 08:08:09;;;;;;;13.88;6.82;;;;;;;13.81;99.54;101139.31;6044668;28;20120;-72
2023/05/06 08:11:04;;;;;;;14.73;6.63;;;;;;;13.33;100.00;101122.97;6045337;28;20034;-71
2023/05/06 08:14:00;;;;;;;15.30;7.60;;;;;;;13.60;100.00;101152.16;6044987;28;20425;-71
2023/05/06 08:16:55;;;;;;;13.73;6.53;;;;;;;14.12;99.66;101140.53;6044914;28;20700;-72
2023/05/06 08:19:50;;;;;;;11.97;6.43;;;;;;;14.63;95.67;101138.75;6045575;28;20042;-72
2023/05/06 08:22:46;;;;;;;13.77;6.20;;;;;;;15.33;91.79;101130.22;6045306;28;20117;-69
2023/05/06 08:25:41;;;;;;;13.47;6.20;;;;;;;16.02;86.85;101136.88;6047551;28;20025;-71
2023/05/06 08:28:36;;;;;;;12.85;6.60;;;;;;;16.12;83.07;101132.16;6073166;28;20057;-71
2023/05/06 08:31:32;;;;;;;13.63;6.80;;;;;;;15.71;85.69;101147.44;6049485;28;20033;-70
2023/05/06 08:34:27;;;;;;;15.32;6.70;;;;;;;16.23;84.92;101155.03;6049178;28;20030;-71
2023/05/06 08:37:23;;;;;;;11.27;6.20;;;;;;;16.61;81.36;101136.38;6049116;28;20048;-71
2023/05/06 08:40:20;;;;;;;9.57;4.63;;;;;;;16.55;78.19;101150.44;6032134;28;20045;-71
2023/05/06 08:43:19;;;;;;;10.38;5.28;;;;;;;16.28;75.82;101148.16;6056204;28;20056;-72
2023/05/06 08:46:15;;;;;;;9.05;4.60;;;;;;;16.71;77.16;101154.06;6049182;28;20599;-72
2023/05/06 08:49:10;;;;;;;8.95;4.30;;;;;;;16.45;77.48;101154.31;6049540;28;20034;-72
2023/05/06 08:52:06;;;;;;;10.13;4.80;;;;;;;16.49;75.64;101159.16;6049532;28;20421;-72
2023/05/06 08:55:04;;;;;;;11.83;5.00;;;;;;;16.29;79.33;101165.91;6032964;28;20429;-72
2023/05/06 08:57:59;;;;;;;10.63;6.07;;;;;;;16.20;81.06;101160.78;6048785;28;20064;-71
2023/05/06 09:00:55;;;;;;;13.07;5.85;;;;;;;15.77;83.29;101154.81;6049250;28;20099;-71
2023/05/06 09:03:50;;;;;;;10.65;5.30;;;;;;;15.45;82.85;101163.66;6053656;28;20433;-71
2023/05/06 09:06:46;;;;;;;12.18;6.30;;;;;;;15.69;84.37;101145.94;6038643;28;20052;-71
2023/05/06 09:09:41;;;;;;;11.27;6.23;;;;;;;16.05;82.24;101147.25;6049474;28;20029;-72
2023/05/06 09:12:37;;;;;;;10.60;5.53;;;;;;;16.47;81.07;101153.13;6048061;28;20331;-72
2023/05/06 09:15:46;;;;;;;10.65;4.80;;;;;;;16.79;79.25;101154.03;6055783;28;20037;-72
2023/05/06 09:18:41;;;;;;;8.60;4.35;;;;;;;17.12;76.53;101155.53;6048260;28;20030;-73
2023/05/06 09:21:39;;;;;;;12.33;5.53;;;;;;;16.72;77.27;101153.03;6060993;28;20026;-71
2023/05/06 09:24:36;;;;;;;10.40;5.40;;;;;;;16.17;79.50;101167.28;6047530;28;20034;-70
2023/05/06 09:27:33;;;;;;;12.43;5.30;;;;;;;15.92;81.11;101158.47;6039767;28;20481;-70
2023/05/06 09:30:29;;;;;;;7.07;4.45;;;;;;;16.06;81.07;101148.94;6048127;28;20041;-71
2023/05/06 09:33:26;;;;;;;8.77;4.63;;;;;;;16.21;77.89;101155.22;6066689;28;20057;-71
2023/05/06 09:36:22;;;;;;;7.72;4.18;;;;;;;16.09;78.10;101160.09;6050787;28;20029;-70
2023/05/06 09:39:17;;;;;;;11.65;4.88;;;;;;;16.51;79.35;101175.88;6057238;28;20385;-71
2023/05/06 09:42:13;;;;;;;6.13;3.57;;;;;;;17.21;75.24;101151.75;6059704;28;20034;-71
2023/05/06 09:45:08;;;;;;;6.93;3.72;;;;;;;17.50;72.72;101143.81;6046142;28;20026;-71
2023/05/06 09:48:05;;;;;;;7.65;3.97;;;;;;;17.57;72.02;101144.81;6047573;28;20637;-72
2023/05/06 09:51:00;;;;;;;6.22;3.60;;;;;;;17.25;69.87;101147.72;6048674;28;20030;-71
2023/05/06 09:53:56;;;;;;;9.13;3.80;;;;;;;16.76;72.79;101151.69;6045574;28;20033;-71
2023/05/06 09:56:54;;;;;;;8.52;4.25;;;;;;;16.46;75.77;101162.19;6045685;28;20037;-72
2023/05/06 09:59:51;;;;;;;9.70;4.22;;;;;;;16.67;77.21;101149.06;6036456;28;20026;-71
2023/05/06 10:02:47;;;;;;;7.63;3.58;;;;;;;17.28;74.41;101158.91;6045319;28;20121;-72
2023/05/06 10:05:42;;;;;;;7.40;4.20;;;;;;;17.88;73.08;101151.91;6047224;28;20038;-70
2023/05/06 10:08:39;;;;;;;12.73;4.80;;;;;;;18.30;72.01;101149.44;6047032;28;20034;-73
2023/05/06 10:11:35;;;;;;;8.93;4.18;;;;;;;18.45;70.01;101143.03;6046972;28;20022;-71
2023/05/06 10:14:30;;;;;;;6.97;3.60;;;;;;;18.44;69.47;101154.81;6046946;28;20465;-72
2023/05/06 10:17:26;;;;;;;8.20;4.22;;;;;;;18.74;69.17;101147.56;6046731;28;20283;-71
2023/05/06 10:20:23;;;;;;;7.78;3.40;;;;;;;18.64;64.67;101157.78;6054435;28;20088;-71
2023/05/06 10:23:38;;;;;;;8.00;3.47;;;;;;;18.48;64.56;101146.41;6036071;28;20026;-72
2023/05/06 10:26:35;;;;;;;8.38;3.78;;;;;;;19.09;65.14;101145.06;6029032;28;20049;-71
2023/05/06 10:29:32;;;;;;;7.82;3.55;;;;;;;18.77;66.13;101149.91;6046837;28;20380;-71
2023/05/06 10:32:31;;;;;;;9.00;4.65;;;;;;;17.98;69.64;101160.53;6028956;28;20045;-71
2023/05/06 10:36:14;;;;;;;8.60;4.22;;;;;;;17.15;72.25;101155.97;6045969;28;20049;-70
2023/05/06 10:39:12;;;;;;;8.40;4.30;;;;;;;17.07;74.22;101144.47;6042231;28;20151;-71
2023/05/06 10:42:09;;;;;;;9.43;4.90;;;;;;;17.84;73.31;101160.31;6042443;28;20022;-72
2023/05/06 10:45:05;;;;;;;6.22;3.60;;;;;;;18.71;69.19;101131.81;6045738;28;20048;-71
2023/05/06 10:48:01;;;;;;;8.63;4.10;;;;;;;19.26;63.24;101149.19;6045792;28;20026;-69
2023/05/06 10:51:15;;;;;;;7.05;3.65;;;;;;;18.60;65.28;101153.81;6053003;28;20088;-71
2023/05/06 10:54:21;;;;;;;9.23;4.88;;;;;;;17.69;68.62;101150.59;6046223;28;20370;-73
2023/05/06 10:57:16;;;;;;;10.30;4.75;;;;;;;17.59;70.13;101149.97;6046495;28;20073;-71
2023/05/06 11:00:14;;;;;;;9.57;4.28;;;;;;;17.58;69.52;101132.25;6059895;28;20048;-70
2023/05/06 11:03:10;;;;;;;8.30;4.32;;;;;;;17.37;69.80;101132.88;6050268;28;20058;-71
2023/05/06 11:06:06;;;;;;;6.43;3.47;;;;;;;17.83;73.56;101152.44;6047125;28;20181;-70
2023/05/06 11:09:03;;;;;;;6.68;3.72;;;;;;;17.46;69.18;101139.84;6048356;28;20473;-69
2023/05/06 11:12:03;;;;;;;9.65;4.05;;;;;;;17.19;71.74;101148.41;6053025;28;20033;-72
2023/05/06 11:15:17;;;;;;;8.95;4.40;;;;;;;17.60;74.36;101149.81;6046923;28;20462;-72
2023/05/06 11:18:28;;;;;;;9.15;4.75;;;;;;;18.25;69.09;101152.69;6046664;28;20091;-69
2023/05/06 11:21:41;;;;;;;11.85;4.93;;;;;;;18.87;68.21;101147.72;6065039;28;20060;-69
2023/05/06 11:24:38;;;;;;;8.38;3.88;;;;;;;18.77;66.85;101152.59;6044480;28;20065;-70
2023/05/06 11:27:34;;;;;;;6.90;3.72;;;;;;;18.25;68.10;101147.31;6043946;28;20121;-70
2023/05/06 11:30:29;;;;;;;7.55;3.85;;;;;;;17.54;71.76;101157.72;6044307;28;20720;-72
2023/05/06 11:33:26;;;;;;;7.25;4.00;;;;;;;16.83;73.53;101182.13;6043656;28;20030;-70
2023/05/06 11:36:22;;;;;;;8.80;3.60;;;;;;;16.77;75.66;101166.78;6027622;28;20037;-69
2023/05/06 11:39:17;;;;;;;6.13;3.27;;;;;;;16.90;74.90;101164.34;6045981;28;20033;-69
2023/05/06 11:42:12;;;;;;;7.65;3.45;;;;;;;17.82;71.61;101159.69;6045627;28;20136;-69
2023/05/06 11:45:10;;;;;;;8.80;4.20;;;;;;;18.82;67.11;101142.09;6044216;28;20060;-70
2023/05/06 11:48:05;;;;;;;7.50;3.42;;;;;;;18.97;67.36;101159.00;6045330;28;20050;-70
2023/05/06 11:51:00;;;;;;;8.73;3.80;;;;;;;18.36;67.72;101165.66;6045349;28;20041;-70
2023/05/06 11:54:07;;;;;;;7.43;3.77;;;;;;;17.99;69.55;101173.75;6046441;28;20531;-70
2023/05/06 11:57:02;;;;;;;7.68;3.72;;;;;;;17.29;72.79;101170.47;6046895;28;20026;-69
2023/05/06 11:59:57;;;;;;;7.40;4.00;;;;;;;17.33;73.94;101177.16;6058771;28;20064;-70
2023/05/06 12:02:56;;;;;;;8.80;3.50;;;;;;;17.45;73.30;101186.44;6049502;28;20417;-71
2023/05/06 12:05:51;;;;;;;6.75;3.53;;;;;;;18.04;71.37;101175.91;6048678;28;20456;-71
2023/05/06 12:08:47;;;;;;;6.95;4.03;;;;;;;18.61;68.44;101170.75;6035244;28;20078;-70
2023/05/06 12:11:43;;;;;;;8.23;3.80;;;;;;;18.17;70.45;101158.16;6048709;28;20044;-71
2023/05/06 12:14:38;;;;;;;7.43;3.63;;;;;;;17.50;69.81;101184.03;6032599;28;20397;-70
2023/05/06 12:17:33;;;;;;;5.50;2.97;;;;;;;17.17;72.66;101177.25;6050310;28;20113;-70
2023/05/06 12:20:29;;;;;;;6.17;3.17;;;;;;;17.25;71.78;101191.44;6048526;28;20030;-72
2023/05/06 12:23:24;;;;;;;5.73;3.00;;;;;;;17.48;72.04;101178.03;6049733;28;20277;-71
2023/05/06 12:26:21;;;;;;;6.38;3.42;;;;;;;18.66;67.50;101176.41;6048541;28;20036;-72
2023/05/06 12:29:16;;;;;;;7.80;3.45;;;;;;;18.80;67.92;101178.25;6050060;28;20109;-71
2023/05/06 12:32:11;;;;;;;6.88;2.95;;;;;;;18.67;67.44;101195.00;6055201;28;20037;-70
2023/05/06 12:35:08;;;;;;;6.53;2.97;;;;;;;18.51;67.64;101187.16;6061044;28;20473;-72
2023/05/06 12:38:11;;;;;;;4.95;2.95;;;;;;;18.66;68.81;101185.31;6050116;28;20628;-71
2023/05/06 12:41:08;;;;;;;5.75;3.03;;;;;;;19.38;64.81;101177.25;6073567;28;20033;-72
2023/05/06 12:44:36;;;;;;;7.65;3.63;;;;;;;19.62;63.44;101184.97;6049829;28;20156;-70
2023/05/06 12:47:31;;;;;;;5.97;3.50;;;;;;;19.02;64.59;101177.28;6049252;28;20048;-71
2023/05/06 12:50:35;;;;;;;6.97;2.87;;;;;;;18.83;67.55;101178.69;6066340;28;20030;-71
2023/05/06 12:53:32;;;;;;;8.02;3.22;;;;;;;19.17;66.74;101179.91;6048700;28;20072;-70
2023/05/06 12:56:27;;;;;;;6.82;3.35;;;;;;;19.58;64.68;101176.44;6050381;28;20030;-71
2023/05/06 12:59:26;;;;;;;5.60;3.20;;;;;;;19.63;60.34;101175.84;6049393;28;20029;-71
2023/05/06 13:02:21;;;;;;;8.98;3.08;;;;;;;19.28;64.14;101168.63;6047152;28;20034;-71
2023/05/06 13:05:16;;;;;;;5.13;2.60;;;;;;;19.28;63.35;101165.94;6061309;28;20053;-70
2023/05/06 13:08:11;;;;;;;6.30;3.17;;;;;;;19.24;62.73;101170.06;6051345;28;20143;-72
2023/05/06 13:11:08;;;;;;;5.28;2.58;;;;;;;19.85;59.83;101163.19;6049150;28;20546;-73
2023/05/06 13:14:03;;;;;;;6.30;2.88;;;;;;;19.89;60.97;101165.31;6049745;28;20030;-71
2023/05/06 13:16:59;;;;;;;4.37;2.63;;;;;;;20.30;60.21;101172.66;6057610;28;20040;-71
2023/05/06 13:19:58;;;;;;;4.97;2.95;;;;;;;20.55;59.26;101173.81;6053143;28;20033;-71
2023/05/06 13:22:53;;;;;;;5.03;2.80;;;;;;;20.65;57.68;101177.00;6061179;28;20026;-71
2023/05/06 13:25:49;;;;;;;5.20;2.72;;;;;;;20.39;57.94;101166.91;6051242;28;20042;-72